Time;durP1;ratioP1;P1;durP2;ratioP2;P2;SDS_P1;SDS_P2;PMS_P1;PMS_P2;Temp;Humidity;BMP_temperature;BMP_pressure;BME280_temperature;BME280_humidity;BME280_pressure;Samples;Min_cycle;Max_cycle;Signal;HPM_P1;HPM_P2
2022/10/18 00:00:40;;;;;;;7.85;5.95;;;;;;;;;;6306880;22;20095;-84
2022/10/18 00:03:06;;;;;;;7.93;5.97;;;;;;;;;;6306792;22;20027;-83
2022/10/18 00:05:32;;;;;;;14.90;6.35;;;;;;;;;;6306968;22;20056;-83
2022/10/18 00:07:58;;;;;;;7.22;5.65;;;;;;;;;;6306691;22;20000;-84
2022/10/18 00:10:25;;;;;;;9.93;4.97;;;;;;;;;;6307141;22;20399;-83
2022/10/18 00:12:51;;;;;;;6.45;5.32;;;;;;;;;;6305162;22;20011;-83
2022/10/18 00:15:18;;;;;;;6.57;5.45;;;;;;;;;;6307597;22;20007;-83
2022/10/18 00:17:44;;;;;;;7.75;5.45;;;;;;;;;;6306670;22;20001;-83
2022/10/18 00:20:10;;;;;;;5.90;5.00;;;;;;;;;;6306791;22;19996;-83
2022/10/18 00:22:37;;;;;;;6.28;5.43;;;;;;;;;;6306854;22;20006;-83
2022/10/18 00:25:04;;;;;;;7.57;5.70;;;;;;;;;;6306518;22;19999;-83
2022/10/18 00:27:31;;;;;;;7.90;6.10;;;;;;;;;;6306678;22;20000;-84
2022/10/18 00:29:57;;;;;;;6.30;5.43;;;;;;;;;;6306603;22;20482;-83
2022/10/18 00:32:23;;;;;;;7.88;6.28;;;;;;;;;;6306779;22;20011;-83
2022/10/18 00:34:49;;;;;;;7.97;5.63;;;;;;;;;;6306681;22;20308;-83
2022/10/18 00:37:15;;;;;;;6.38;5.68;;;;;;;;;;6306467;22;20000;-83
2022/10/18 00:39:42;;;;;;;7.00;5.47;;;;;;;;;;6306765;22;20431;-84
2022/10/18 00:42:10;;;;;;;8.13;6.05;;;;;;;;;;6306453;22;19999;-83
2022/10/18 00:44:37;;;;;;;6.28;5.55;;;;;;;;;;6306736;22;20445;-83
2022/10/18 00:47:06;;;;;;;6.03;5.43;;;;;;;;;;6306248;22;20070;-84
2022/10/18 00:49:34;;;;;;;8.48;5.63;;;;;;;;;;6306703;22;20052;-83
2022/10/18 00:52:03;;;;;;;6.28;5.45;;;;;;;;;;6304749;22;20065;-83
2022/10/18 00:54:30;;;;;;;6.88;5.35;;;;;;;;;;6306631;22;20002;-83
2022/10/18 00:56:56;;;;;;;6.43;5.72;;;;;;;;;;6305956;22;20073;-83
2022/10/18 00:59:22;;;;;;;7.50;6.75;;;;;;;;;;6304865;22;20084;-83
2022/10/18 01:01:48;;;;;;;7.78;5.70;;;;;;;;;;6306367;22;20017;-83
2022/10/18 01:04:16;;;;;;;6.18;5.10;;;;;;;;;;6306511;22;20004;-84
2022/10/18 01:06:50;;;;;;;5.38;4.63;;;;;;;;;;6305988;22;19997;-83
2022/10/18 01:09:23;;;;;;;5.70;4.93;;;;;;;;;;6306178;22;20007;-84
2022/10/18 01:12:01;;;;;;;7.35;4.97;;;;;;;;;;6306354;22;19999;-83
2022/10/18 01:14:46;;;;;;;8.43;5.70;;;;;;;;;;6306622;22;20007;-84
2022/10/18 01:17:12;;;;;;;7.55;6.35;;;;;;;;;;6308481;22;19995;-85
2022/10/18 01:19:57;;;;;;;10.02;6.20;;;;;;;;;;6307397;22;20060;-83
2022/10/18 01:22:26;;;;;;;7.10;5.90;;;;;;;;;;6308650;22;19995;-83
2022/10/18 01:25:07;;;;;;;6.32;4.80;;;;;;;;;;6308668;22;20010;-83
2022/10/18 01:27:36;;;;;;;7.35;6.28;;;;;;;;;;6308345;22;20003;-83
2022/10/18 01:30:15;;;;;;;7.20;5.63;;;;;;;;;;6308147;22;20000;-83
2022/10/18 01:32:45;;;;;;;6.45;5.45;;;;;;;;;;6308179;22;20057;-84
2022/10/18 01:35:14;;;;;;;6.78;5.30;;;;;;;;;;6308504;22;20067;-83
2022/10/18 01:37:42;;;;;;;7.53;6.43;;;;;;;;;;6308242;22;19999;-83
2022/10/18 01:40:10;;;;;;;6.68;5.82;;;;;;;;;;6308522;22;19999;-83
2022/10/18 01:42:36;;;;;;;7.18;5.68;;;;;;;;;;6308205;22;19999;-83
2022/10/18 01:45:02;;;;;;;7.32;6.00;;;;;;;;;;6308474;22;20076;-83
2022/10/18 01:47:29;;;;;;;7.40;5.18;;;;;;;;;;6308405;22;19995;-83
2022/10/18 01:49:59;;;;;;;6.75;5.75;;;;;;;;;;6306602;22;20007;-83
2022/10/18 01:52:25;;;;;;;6.85;5.50;;;;;;;;;;6306656;22;20361;-84
2022/10/18 01:54:51;;;;;;;7.68;5.32;;;;;;;;;;6307976;22;20048;-83
2022/10/18 01:57:36;;;;;;;8.27;6.70;;;;;;;;;;6308122;22;19995;-83
2022/10/18 02:00:02;;;;;;;7.45;6.50;;;;;;;;;;6308131;22;19999;-84
2022/10/18 02:02:50;;;;;;;7.40;6.60;;;;;;;;;;6308032;22;20010;-83
2022/10/18 02:05:35;;;;;;;8.95;6.18;;;;;;;;;;6306435;22;20367;-84
2022/10/18 02:08:01;;;;;;;;;;;;;;;;;;6308448;22;20103;-84
2022/10/18 02:10:29;;;;;;;8.48;5.53;;;;;;;;;;6308267;22;19988;-83
2022/10/18 02:12:56;;;;;;;7.10;5.55;;;;;;;;;;6306231;22;20041;-84
2022/10/18 02:15:25;;;;;;;8.60;6.63;;;;;;;;;;6306624;22;20431;-83
2022/10/18 02:17:52;;;;;;;11.05;6.60;;;;;;;;;;6307736;22;20027;-84
2022/10/18 02:20:20;;;;;;;9.93;6.10;;;;;;;;;;6306555;22;20435;-84
2022/10/18 02:22:47;;;;;;;7.88;6.38;;;;;;;;;;6308122;22;20003;-85
2022/10/18 02:25:15;;;;;;;7.07;5.40;;;;;;;;;;6306359;22;20461;-84
2022/10/18 02:27:41;;;;;;;8.30;6.15;;;;;;;;;;6307807;22;20010;-83
2022/10/18 02:30:08;;;;;;;7.30;5.72;;;;;;;;;;6307930;22;20034;-83
2022/10/18 02:32:38;;;;;;;7.72;6.05;;;;;;;;;;6307932;22;20427;-82
2022/10/18 02:35:06;;;;;;;7.00;5.90;;;;;;;;;;6307619;22;20007;-84
2022/10/18 02:37:36;;;;;;;7.70;6.03;;;;;;;;;;6306337;22;20006;-83
2022/10/18 02:40:04;;;;;;;7.55;6.43;;;;;;;;;;6307812;22;20451;-83
2022/10/18 02:42:39;;;;;;;6.85;6.15;;;;;;;;;;6306037;22;20000;-83
2022/10/18 02:45:06;;;;;;;9.70;6.05;;;;;;;;;;6307912;22;20070;-83
2022/10/18 02:47:32;;;;;;;6.25;5.63;;;;;;;;;;6307841;22;20066;-82
2022/10/18 02:49:58;;;;;;;6.95;5.90;;;;;;;;;;6307729;22;19999;-83
2022/10/18 02:52:25;;;;;;;9.05;5.82;;;;;;;;;;6305788;22;20007;-83
2022/10/18 02:54:51;;;;;;;6.95;5.90;;;;;;;;;;6307496;22;20369;-83
2022/10/18 02:57:17;;;;;;;6.28;5.03;;;;;;;;;;6307906;22;20003;-83
2022/10/18 02:59:43;;;;;;;7.70;5.55;;;;;;;;;;6307563;22;19995;-83
2022/10/18 03:02:09;;;;;;;7.15;5.32;;;;;;;;;;6307683;22;20015;-83
2022/10/18 03:04:35;;;;;;;7.95;6.10;;;;;;;;;;6307816;22;20133;-83
2022/10/18 03:07:01;;;;;;;8.38;6.13;;;;;;;;;;6307496;22;20107;-83
2022/10/18 03:09:27;;;;;;;9.25;6.45;;;;;;;;;;6307673;22;20003;-83
2022/10/18 03:11:53;;;;;;;7.32;6.38;;;;;;;;;;6305732;22;20056;-83
2022/10/18 03:14:19;;;;;;;12.68;6.90;;;;;;;;;;6307568;22;20086;-83
2022/10/18 03:16:45;;;;;;;10.05;6.60;;;;;;;;;;6307558;22;20010;-84
2022/10/18 03:19:12;;;;;;;9.27;7.05;;;;;;;;;;6307580;22;20007;-84
2022/10/18 03:21:38;;;;;;;8.20;6.60;;;;;;;;;;6306423;22;20078;-83
2022/10/18 03:24:04;;;;;;;8.63;6.95;;;;;;;;;;6307185;22;19995;-83
2022/10/18 03:26:30;;;;;;;8.23;6.80;;;;;;;;;;6307577;22;19999;-83
2022/10/18 03:28:56;;;;;;;8.23;6.57;;;;;;;;;;6307170;22;20006;-83
2022/10/18 03:31:22;;;;;;;11.82;8.93;;;;;;;;;;6307474;22;20007;-83
2022/10/18 03:33:48;;;;;;;9.90;7.85;;;;;;;;;;6307199;22;20319;-83
2022/10/18 03:36:14;;;;;;;12.95;9.40;;;;;;;;;;6307174;22;19995;-83
2022/10/18 03:38:41;;;;;;;9.15;7.28;;;;;;;;;;6307093;22;19995;-84
2022/10/18 03:41:07;;;;;;;12.05;7.30;;;;;;;;;;6305654;22;20007;-83
2022/10/18 03:43:33;;;;;;;8.57;7.30;;;;;;;;;;6307337;22;20973;-83
2022/10/18 03:45:59;;;;;;;9.15;6.93;;;;;;;;;;6306742;22;20074;-83
2022/10/18 03:48:25;;;;;;;9.95;7.70;;;;;;;;;;6305151;22;20380;-83
2022/10/18 03:50:51;;;;;;;11.65;8.95;;;;;;;;;;6307140;22;20014;-83
2022/10/18 03:53:18;;;;;;;10.32;7.85;;;;;;;;;;6306706;22;19996;-83
2022/10/18 03:55:44;;;;;;;9.55;7.22;;;;;;;;;;6307054;22;19999;-83
2022/10/18 03:58:10;;;;;;;10.50;7.78;;;;;;;;;;6305067;22;20074;-83
2022/10/18 04:00:36;;;;;;;10.32;7.50;;;;;;;;;;6306648;22;20338;-84
2022/10/18 04:03:02;;;;;;;9.48;7.80;;;;;;;;;;6303602;22;20014;-83
2022/10/18 04:05:30;;;;;;;9.00;5.90;;;;;;;;;;6306721;22;20025;-83
2022/10/18 04:07:56;;;;;;;8.70;6.97;;;;;;;;;;6306581;22;20312;-83
2022/10/18 04:10:22;;;;;;;14.73;9.07;;;;;;;;;;6306188;22;20003;-83
2022/10/18 04:12:48;;;;;;;13.85;9.88;;;;;;;;;;6306607;22;20125;-83
2022/10/18 04:15:14;;;;;;;12.80;8.63;;;;;;;;;;6306589;22;20423;-83
2022/10/18 04:17:40;;;;;;;12.23;8.30;;;;;;;;;;6306929;22;19996;-84
2022/10/18 04:20:07;;;;;;;7.85;6.88;;;;;;;;;;6305278;22;20090;-83
2022/10/18 04:44:41;;;;;;;;;;;;;;;;;;;;;
2022/10/18 05:13:05;;;;;;;12.95;11.45;;;;;;;;;;5979877;24;20104;-84
2022/10/18 05:24:59;;;;;;;24.70;18.75;;;;;;;;;;6052281;23;20021;-84
2022/10/18 05:27:46;;;;;;;33.90;25.67;;;;;;;;;;6099294;23;20077;-84
2022/10/18 05:30:21;;;;;;;35.85;25.15;;;;;;;;;;6194939;22;20054;-85
2022/10/18 05:32:47;;;;;;;31.38;22.58;;;;;;;;;;6270355;22;20379;-86
2022/10/18 05:35:25;;;;;;;59.35;36.25;;;;;;;;;;6248612;22;20137;-86
2022/10/18 05:38:10;;;;;;;21.85;16.45;;;;;;;;;;6267004;22;20466;-84
2022/10/18 05:40:49;;;;;;;21.17;15.53;;;;;;;;;;6273254;22;19992;-84
2022/10/18 05:43:16;;;;;;;25.98;17.30;;;;;;;;;;6273819;22;20229;-81
2022/10/18 05:45:49;;;;;;;24.73;17.25;;;;;;;;;;6273702;22;20008;-79
2022/10/18 05:48:18;;;;;;;27.42;18.63;;;;;;;;;;6270456;22;20004;-82
2022/10/18 05:50:44;;;;;;;25.70;17.63;;;;;;;;;;6245915;22;20007;-82
2022/10/18 05:53:11;;;;;;;26.95;16.92;;;;;;;;;;6273608;22;20014;-79
2022/10/18 05:55:37;;;;;;;29.48;20.67;;;;;;;;;;6273487;22;20000;-80
2022/10/18 05:58:03;;;;;;;254.93;77.13;;;;;;;;;;6273332;22;20015;-82
2022/10/18 06:00:29;;;;;;;373.70;109.82;;;;;;;;;;6245688;22;20011;-82
2022/10/18 06:02:55;;;;;;;398.63;114.45;;;;;;;;;;6274573;22;20551;-80
2022/10/18 06:05:22;;;;;;;305.10;92.45;;;;;;;;;;6304509;22;20015;-81
2022/10/18 06:07:48;;;;;;;222.18;69.50;;;;;;;;;;6305933;22;20132;-82
2022/10/18 06:10:14;;;;;;;65.88;27.83;;;;;;;;;;6306672;22;20083;-80
2022/10/18 06:12:40;;;;;;;50.22;25.35;;;;;;;;;;6306825;22;20592;-82
2022/10/18 06:15:06;;;;;;;38.92;22.10;;;;;;;;;;6306392;22;20328;-82
2022/10/18 06:17:44;;;;;;;35.78;21.98;;;;;;;;;;6279125;22;20003;-80
2022/10/18 06:20:10;;;;;;;34.20;21.67;;;;;;;;;;6304011;22;20380;-81
2022/10/18 06:22:36;;;;;;;25.65;18.95;;;;;;;;;;6305607;22;20003;-82
2022/10/18 06:25:02;;;;;;;23.33;18.98;;;;;;;;;;6306360;22;20030;-82
2022/10/18 06:27:35;;;;;;;26.60;21.92;;;;;;;;;;6304644;22;20011;-84
2022/10/18 06:30:01;;;;;;;30.70;24.85;;;;;;;;;;6305993;22;20041;-83
2022/10/18 06:32:27;;;;;;;28.58;22.35;;;;;;;;;;6305008;22;20078;-82
2022/10/18 06:34:55;;;;;;;24.33;19.08;;;;;;;;;;6276898;22;20010;-84
2022/10/18 06:37:48;;;;;;;14.82;13.07;;;;;;;;;;6305464;22;20011;-84
2022/10/18 06:40:17;;;;;;;22.80;14.07;;;;;;;;;;6305437;22;20422;-86
2022/10/18 06:42:53;;;;;;;;;;;;;;;;;;;;;
2022/10/18 06:45:20;;;;;;;21.40;15.18;;;;;;;;;;6304114;22;20450;-83
2022/10/18 06:47:46;;;;;;;25.92;15.63;;;;;;;;;;6305765;22;20003;-80
2022/10/18 06:50:12;;;;;;;23.08;15.05;;;;;;;;;;6305478;22;19999;-76
2022/10/18 06:52:40;;;;;;;36.63;17.70;;;;;;;;;;6305841;22;20007;-81
2022/10/18 06:55:06;;;;;;;33.80;18.90;;;;;;;;;;6306182;22;20110;-82
2022/10/18 06:57:33;;;;;;;21.27;13.82;;;;;;;;;;6278704;22;20140;-86
2022/10/18 06:59:59;;;;;;;30.95;17.80;;;;;;;;;;6278184;22;20007;-81
2022/10/18 07:02:32;;;;;;;36.38;20.95;;;;;;;;;;6278381;22;20430;-81
2022/10/18 07:05:01;;;;;;;35.25;21.27;;;;;;;;;;6251780;22;20023;-81
2022/10/18 07:07:30;;;;;;;28.60;18.25;;;;;;;;;;6305743;22;19999;-78
2022/10/18 07:09:59;;;;;;;27.30;17.63;;;;;;;;;;6304936;22;19999;-82
2022/10/18 07:12:25;;;;;;;24.58;15.93;;;;;;;;;;6305069;22;20007;-82
2022/10/18 07:14:51;;;;;;;26.95;15.95;;;;;;;;;;6304607;22;20000;-81
2022/10/18 07:17:17;;;;;;;55.58;28.25;;;;;;;;;;6304273;22;19999;-80
2022/10/18 07:19:43;;;;;;;35.63;19.92;;;;;;;;;;6304494;22;19999;-82
2022/10/18 07:22:14;;;;;;;40.20;20.83;;;;;;;;;;6302733;22;20004;-84
2022/10/18 07:24:53;;;;;;;17.08;12.32;;;;;;;;;;6301734;22;20045;-82
2022/10/18 07:27:22;;;;;;;17.73;12.23;;;;;;;;;;6304155;22;20003;-83
2022/10/18 07:29:49;;;;;;;26.77;15.05;;;;;;;;;;6305587;22;19999;-81
2022/10/18 07:32:16;;;;;;;27.75;14.13;;;;;;;;;;6304348;22;20053;-84
2022/10/18 07:34:47;;;;;;;24.52;13.82;;;;;;;;;;6276582;22;20060;-82
2022/10/18 07:37:13;;;;;;;34.13;18.13;;;;;;;;;;6277279;22;20019;-82
2022/10/18 07:39:39;;;;;;;14.65;10.10;;;;;;;;;;6304744;22;20010;-82
2022/10/18 07:42:05;;;;;;;17.73;10.80;;;;;;;;;;6304292;22;20330;-84
2022/10/18 07:44:35;;;;;;;27.42;13.15;;;;;;;;;;6276949;22;20018;-86
2022/10/18 07:47:01;;;;;;;24.17;12.73;;;;;;;;;;6276690;22;20011;-83
2022/10/18 07:49:27;;;;;;;15.63;10.07;;;;;;;;;;6277640;22;20033;-87
2022/10/18 07:51:53;;;;;;;33.95;16.00;;;;;;;;;;6278302;22;20046;-87
2022/10/18 07:54:24;;;;;;;45.60;20.40;;;;;;;;;;6305558;22;19999;-86
2022/10/18 07:56:52;;;;;;;38.45;18.85;;;;;;;;;;6304888;22;20058;-82
2022/10/18 07:59:21;;;;;;;46.88;19.92;;;;;;;;;;6305545;22;20082;-80
2022/10/18 08:01:47;;;;;;;77.40;37.03;;;;;;;;;;6278140;22;20006;-82
2022/10/18 08:04:13;;;;;;;23.88;12.80;;;;;;;;;;6304660;22;20011;-83
2022/10/18 08:06:39;;;;;;;15.13;10.00;;;;;;;;;;6305414;22;20070;-82
2022/10/18 08:09:06;;;;;;;20.15;13.75;;;;;;;;;;6305278;22;20007;-82
2022/10/18 08:11:32;;;;;;;13.07;7.93;;;;;;;;;;6305036;22;20074;-82
2022/10/18 08:13:58;;;;;;;10.20;7.30;;;;;;;;;;6304342;22;20035;-81
2022/10/18 08:16:28;;;;;;;77.32;31.73;;;;;;;;;;6304465;22;20381;-82
2022/10/18 08:18:54;;;;;;;93.22;37.53;;;;;;;;;;6305328;22;19999;-82
2022/10/18 08:21:20;;;;;;;68.35;30.30;;;;;;;;;;6277954;22;20330;-81
2022/10/18 08:23:47;;;;;;;50.53;23.02;;;;;;;;;;6304768;22;19999;-81
2022/10/18 08:26:15;;;;;;;20.90;10.02;;;;;;;;;;6304847;22;20426;-83
2022/10/18 08:28:41;;;;;;;10.05;6.43;;;;;;;;;;6305187;22;20006;-84
2022/10/18 08:31:19;;;;;;;22.00;13.00;;;;;;;;;;6303937;22;19999;-86
2022/10/18 08:33:46;;;;;;;14.55;10.73;;;;;;;;;;6305168;22;20079;-84
2022/10/18 08:36:13;;;;;;;8.52;6.32;;;;;;;;;;6276312;22;20316;-82
2022/10/18 08:38:39;;;;;;;6.63;5.97;;;;;;;;;;6302903;22;20002;-81
2022/10/18 08:41:21;;;;;;;6.10;4.60;;;;;;;;;;6305305;22;20003;-83
2022/10/18 08:43:52;;;;;;;7.03;4.40;;;;;;;;;;6304890;22;20056;-80
2022/10/18 08:46:21;;;;;;;7.05;5.47;;;;;;;;;;6304811;22;20063;-80
2022/10/18 08:48:50;;;;;;;6.93;4.18;;;;;;;;;;6304612;22;20335;-83
2022/10/18 08:51:27;;;;;;;9.73;4.63;;;;;;;;;;6304208;22;20010;-82
2022/10/18 08:54:02;;;;;;;7.13;4.85;;;;;;;;;;6303868;22;20010;-82
2022/10/18 08:56:29;;;;;;;6.82;4.32;;;;;;;;;;6304782;22;20443;-80
2022/10/18 08:58:55;;;;;;;4.95;3.75;;;;;;;;;;6304901;22;20067;-81
2022/10/18 09:01:33;;;;;;;5.00;3.95;;;;;;;;;;6304980;22;20083;-82
2022/10/18 09:04:02;;;;;;;9.00;4.05;;;;;;;;;;6304483;22;20073;-82
2022/10/18 09:06:32;;;;;;;9.70;4.50;;;;;;;;;;6303066;22;20423;-83
2022/10/18 09:09:07;;;;;;;4.97;3.75;;;;;;;;;;6302238;22;20003;-82
2022/10/18 09:11:43;;;;;;;7.68;4.28;;;;;;;;;;6304397;22;20003;-82
2022/10/18 09:14:21;;;;;;;5.60;4.10;;;;;;;;;;6305323;22;20430;-84
2022/10/18 09:17:04;;;;;;;5.78;4.80;;;;;;;;;;6305214;22;20006;-83
2022/10/18 09:19:46;;;;;;;5.78;4.20;;;;;;;;;;6303250;22;20005;-84
2022/10/18 09:22:13;;;;;;;4.95;3.97;;;;;;;;;;6303266;22;20003;-86
2022/10/18 09:24:58;;;;;;;6.07;4.38;;;;;;;;;;6305849;22;20449;-86
2022/10/18 09:27:33;;;;;;;6.95;4.43;;;;;;;;;;6305296;22;20000;-87
2022/10/18 09:30:07;;;;;;;4.45;4.00;;;;;;;;;;6303506;22;20072;-84
2022/10/18 09:32:47;;;;;;;5.27;3.83;;;;;;;;;;6304345;22;20454;-86
2022/10/18 09:35:16;;;;;;;5.47;4.22;;;;;;;;;;6304425;22;20006;-82
2022/10/18 09:37:43;;;;;;;8.45;4.60;;;;;;;;;;6306542;22;20015;-81
2022/10/18 09:40:27;;;;;;;5.85;4.38;;;;;;;;;;6306430;22;19999;-77
2022/10/18 09:42:54;;;;;;;5.82;4.35;;;;;;;;;;6307067;22;20007;-85
2022/10/18 09:45:26;;;;;;;6.63;4.63;;;;;;;;;;6306831;22;20079;-81
2022/10/18 09:48:02;;;;;;;5.75;4.65;;;;;;;;;;6307326;22;20089;-85
2022/10/18 09:50:48;;;;;;;6.47;4.15;;;;;;;;;;6306998;22;20006;-85
2022/10/18 09:53:34;;;;;;;8.18;5.25;;;;;;;;;;6306427;22;20092;-85
2022/10/18 09:56:08;;;;;;;11.63;6.40;;;;;;;;;;6307281;22;20000;-85
2022/10/18 09:58:43;;;;;;;154.63;55.97;;;;;;;;;;6306585;22;20010;-83
2022/10/18 10:01:10;;;;;;;19.02;9.43;;;;;;;;;;6306483;22;19999;-82
2022/10/18 10:03:36;;;;;;;7.63;5.82;;;;;;;;;;6305529;22;20015;-80
2022/10/18 10:06:23;;;;;;;8.55;5.30;;;;;;;;;;6307194;22;20003;-85
2022/10/18 10:08:54;;;;;;;7.90;7.10;;;;;;;;;;6290875;22;20003;-83
2022/10/18 10:11:39;;;;;;;6.82;5.85;;;;;;;;;;6307074;22;20003;-82
2022/10/18 10:14:21;;;;;;;6.53;4.60;;;;;;;;;;6306180;22;20057;-78
2022/10/18 10:16:52;;;;;;;8.25;5.07;;;;;;;;;;6306883;22;19996;-83
2022/10/18 10:19:26;;;;;;;8.07;5.82;;;;;;;;;;6306735;22;20018;-83
2022/10/18 10:21:55;;;;;;;11.50;5.35;;;;;;;;;;6278250;22;20438;-83
2022/10/18 10:24:24;;;;;;;75.88;28.40;;;;;;;;;;6306060;22;20006;-81
2022/10/18 10:26:50;;;;;;;18.73;9.65;;;;;;;;;;6305757;22;20007;-80
2022/10/18 10:29:35;;;;;;;34.35;13.95;;;;;;;;;;6279141;22;20006;-80
2022/10/18 10:32:01;;;;;;;;;;;;;;;;;;6307210;22;20003;-82
2022/10/18 10:34:29;;;;;;;8.40;4.68;;;;;;;;;;6305941;22;19903;-85
2022/10/18 10:36:55;;;;;;;10.98;6.03;;;;;;;;;;6306374;22;20053;-84
2022/10/18 10:39:23;;;;;;;6.20;4.88;;;;;;;;;;6306882;22;20000;-83
2022/10/18 10:41:50;;;;;;;4.68;4.03;;;;;;;;;;6304484;22;20005;-84
2022/10/18 10:44:35;;;;;;;4.93;3.80;;;;;;;;;;6305533;22;20041;-81
2022/10/18 10:47:01;;;;;;;5.43;3.83;;;;;;;;;;6305993;22;19999;-82
2022/10/18 10:49:42;;;;;;;5.65;4.15;;;;;;;;;;6304897;22;20041;-81
2022/10/18 10:52:16;;;;;;;9.23;4.18;;;;;;;;;;6305247;22;20033;-86
2022/10/18 10:54:42;;;;;;;;;;;;;;;;;;6305976;22;20497;-82
2022/10/18 10:57:11;;;;;;;16.52;8.20;;;;;;;;;;6304458;22;19949;-81
2022/10/18 10:59:44;;;;;;;5.50;3.75;;;;;;;;;;6306947;22;20007;-86
2022/10/18 11:02:15;;;;;;;3.97;3.08;;;;;;;;;;6305603;22;19999;-88
2022/10/18 11:04:43;;;;;;;5.25;3.53;;;;;;;;;;6305736;22;20520;-84
2022/10/18 11:07:09;;;;;;;3.20;2.40;;;;;;;;;;6305195;22;20057;-83
2022/10/18 11:09:53;;;;;;;4.97;3.00;;;;;;;;;;6304716;22;20007;-83
2022/10/18 11:12:38;;;;;;;5.80;3.40;;;;;;;;;;6306197;22;20008;-86
2022/10/18 11:15:23;;;;;;;4.60;2.90;;;;;;;;;;6305505;22;20719;-82
2022/10/18 11:18:04;;;;;;;4.78;3.30;;;;;;;;;;6303639;22;20003;-84
2022/10/18 11:20:44;;;;;;;3.40;2.78;;;;;;;;;;6305356;22;20011;-82
2022/10/18 11:23:12;;;;;;;6.65;3.60;;;;;;;;;;6305739;22;20430;-81
2022/10/18 11:25:47;;;;;;;13.90;5.22;;;;;;;;;;6305876;22;20049;-86
2022/10/18 11:28:13;;;;;;;46.95;17.27;;;;;;;;;;6305477;22;20003;-79
2022/10/18 11:30:45;;;;;;;28.65;13.63;;;;;;;;;;6305498;22;20014;-82
2022/10/18 11:33:11;;;;;;;27.58;14.00;;;;;;;;;;6304795;22;20090;-80
2022/10/18 11:35:52;;;;;;;31.35;13.90;;;;;;;;;;6304573;22;19999;-80
2022/10/18 11:38:24;;;;;;;31.15;13.30;;;;;;;;;;6304584;22;19999;-82
2022/10/18 11:40:56;;;;;;;15.45;7.85;;;;;;;;;;6303380;22;20022;-80
2022/10/18 11:43:26;;;;;;;25.92;12.45;;;;;;;;;;6304761;22;20483;-81
2022/10/18 11:46:04;;;;;;;21.55;9.40;;;;;;;;;;6303761;22;20026;-79
2022/10/18 11:48:39;;;;;;;12.00;6.43;;;;;;;;;;6305524;22;20007;-79
2022/10/18 11:51:24;;;;;;;14.07;9.07;;;;;;;;;;6304581;22;20075;-79
2022/10/18 11:53:50;;;;;;;20.92;11.63;;;;;;;;;;6303847;22;20495;-78
2022/10/18 11:56:34;;;;;;;15.18;9.35;;;;;;;;;;6304970;22;19999;-79
2022/10/18 11:59:00;;;;;;;15.80;9.00;;;;;;;;;;6304270;22;19999;-77
2022/10/18 12:01:32;;;;;;;21.23;13.10;;;;;;;;;;6304687;22;20053;-80
2022/10/18 12:04:17;;;;;;;26.85;14.30;;;;;;;;;;6304787;22;20008;-78
2022/10/18 12:06:44;;;;;;;14.20;5.80;;;;;;;;;;6305141;22;19999;-78
2022/10/18 12:09:29;;;;;;;5.95;3.47;;;;;;;;;;6304138;22;19999;-78
2022/10/18 12:11:57;;;;;;;10.90;6.32;;;;;;;;;;6305064;22;19999;-80
2022/10/18 12:14:26;;;;;;;14.30;8.32;;;;;;;;;;6304821;22;20025;-79
2022/10/18 12:16:55;;;;;;;4.95;3.40;;;;;;;;;;6302108;22;20003;-81
2022/10/18 12:19:23;;;;;;;17.67;10.45;;;;;;;;;;6304751;22;19999;-79
2022/10/18 12:21:51;;;;;;;25.60;12.98;;;;;;;;;;6304252;22;19995;-78
2022/10/18 12:24:22;;;;;;;24.52;11.65;;;;;;;;;;6304529;22;20128;-81
2022/10/18 12:26:50;;;;;;;28.50;13.32;;;;;;;;;;6305202;22;20007;-82
2022/10/18 12:29:16;;;;;;;38.35;14.93;;;;;;;;;;6304822;22;20342;-84
2022/10/18 12:31:44;;;;;;;67.25;25.17;;;;;;;;;;6305135;22;20343;-80
2022/10/18 12:34:29;;;;;;;19.33;9.05;;;;;;;;;;6304804;22;20346;-82
2022/10/18 12:37:14;;;;;;;20.98;9.27;;;;;;;;;;6306612;22;19999;-83
2022/10/18 12:39:51;;;;;;;14.35;5.93;;;;;;;;;;6305501;22;20418;-80
2022/10/18 12:42:25;;;;;;;26.95;10.57;;;;;;;;;;6305897;22;20475;-81
2022/10/18 12:45:04;;;;;;;39.03;15.52;;;;;;;;;;6305534;22;19999;-83
2022/10/18 12:47:30;;;;;;;23.45;9.30;;;;;;;;;;6305804;22;20079;-83
2022/10/18 12:50:15;;;;;;;27.40;11.18;;;;;;;;;;6304583;22;20000;-83
2022/10/18 12:52:41;;;;;;;;;;;;;;;;;;6306250;22;19999;-80
2022/10/18 12:55:26;;;;;;;22.25;9.18;;;;;;;;;;6306309;22;19898;-83
2022/10/18 12:57:52;;;;;;;;;;;;;;;;;;6306342;22;20505;-80
2022/10/18 13:00:30;;;;;;;9.05;3.55;;;;;;;;;;6306299;22;19941;-82
2022/10/18 13:03:16;;;;;;;4.15;2.50;;;;;;;;;;6306309;22;20023;-82
2022/10/18 13:05:51;;;;;;;5.75;2.97;;;;;;;;;;6306276;22;20069;-80
2022/10/18 13:08:29;;;;;;;3.75;2.53;;;;;;;;;;6306185;22;19999;-82
2022/10/18 13:11:01;;;;;;;3.83;2.83;;;;;;;;;;6306129;22;20022;-79
2022/10/18 13:13:46;;;;;;;8.50;4.68;;;;;;;;;;6305716;22;20030;-80
2022/10/18 13:16:14;;;;;;;8.15;4.75;;;;;;;;;;6305652;22;20438;-81
2022/10/18 13:18:53;;;;;;;6.07;2.90;;;;;;;;;;6305854;22;20003;-79
2022/10/18 13:21:38;;;;;;;4.97;2.53;;;;;;;;;;6278410;22;20000;-85
2022/10/18 13:24:10;;;;;;;2.72;1.77;;;;;;;;;;6306473;22;19999;-82
2022/10/18 13:26:39;;;;;;;2.17;1.92;;;;;;;;;;6305288;22;20015;-82
2022/10/18 13:29:24;;;;;;;3.65;2.35;;;;;;;;;;6306292;22;20003;-84
2022/10/18 13:32:09;;;;;;;3.50;2.20;;;;;;;;;;6279554;22;20029;-83
2022/10/18 13:34:37;;;;;;;3.67;2.40;;;;;;;;;;6305848;22;20003;-82
2022/10/18 13:37:06;;;;;;;4.07;2.35;;;;;;;;;;6306002;22;20000;-84
2022/10/18 13:39:32;;;;;;;4.60;2.50;;;;;;;;;;6306286;22;20071;-83
2022/10/18 13:41:59;;;;;;;4.00;2.20;;;;;;;;;;6278947;22;20380;-83
2022/10/18 13:44:39;;;;;;;2.75;2.03;;;;;;;;;;6306274;22;19999;-85
2022/10/18 13:47:05;;;;;;;3.33;1.92;;;;;;;;;;6306389;22;20439;-83
2022/10/18 13:49:49;;;;;;;3.08;2.17;;;;;;;;;;6279060;22;20335;-82
2022/10/18 13:52:20;;;;;;;4.13;2.13;;;;;;;;;;6307370;22;20145;-83
2022/10/18 13:55:05;;;;;;;2.97;1.98;;;;;;;;;;6306561;22;20304;-83
2022/10/18 13:57:50;;;;;;;6.20;2.90;;;;;;;;;;6306548;22;20493;-83
2022/10/18 14:00:16;;;;;;;;;;;;;;;;;;6306897;22;20003;-83
2022/10/18 14:03:01;;;;;;;4.85;3.63;;;;;;;;;;6306394;22;20360;-84
2022/10/18 14:05:27;;;;;;;6.03;3.25;;;;;;;;;;6278482;22;20108;-85
2022/10/18 14:07:57;;;;;;;5.35;3.58;;;;;;;;;;6306545;22;19995;-81
2022/10/18 14:10:26;;;;;;;3.60;2.03;;;;;;;;;;6305911;22;20000;-82
2022/10/18 14:12:56;;;;;;;3.67;1.85;;;;;;;;;;6306240;22;20078;-83
2022/10/18 14:15:32;;;;;;;3.15;2.28;;;;;;;;;;6305737;22;20002;-85
2022/10/18 14:18:01;;;;;;;4.95;3.50;;;;;;;;;;6306288;22;20003;-88
2022/10/18 14:20:27;;;;;;;4.05;3.13;;;;;;;;;;6306329;22;20067;-82
2022/10/18 14:23:02;;;;;;;3.88;2.50;;;;;;;;;;6307777;22;20014;-81
2022/10/18 14:25:30;;;;;;;4.32;2.67;;;;;;;;;;6308267;22;20007;-85
2022/10/18 14:28:06;;;;;;;2.83;2.17;;;;;;;;;;6308169;22;20054;-83
2022/10/18 14:30:32;;;;;;;4.05;2.33;;;;;;;;;;6308085;22;20026;-86
2022/10/18 14:32:58;;;;;;;3.85;2.22;;;;;;;;;;6307765;22;20031;-85
2022/10/18 14:35:27;;;;;;;3.25;2.38;;;;;;;;;;6308124;22;20015;-82
2022/10/18 14:37:54;;;;;;;3.60;2.50;;;;;;;;;;6307918;22;20038;-84
2022/10/18 14:40:27;;;;;;;5.07;2.47;;;;;;;;;;6307950;22;19992;-83
2022/10/18 14:42:53;;;;;;;3.95;2.60;;;;;;;;;;6280367;22;20046;-84
2022/10/18 14:45:20;;;;;;;4.72;2.53;;;;;;;;;;6307819;22;20500;-84
2022/10/18 14:47:46;;;;;;;6.05;2.88;;;;;;;;;;6307884;22;20308;-85
2022/10/18 14:50:20;;;;;;;6.85;5.47;;;;;;;;;;6307462;22;20014;-85
2022/10/18 14:52:46;;;;;;;6.13;5.10;;;;;;;;;;6307880;22;20074;-83
2022/10/18 14:55:17;;;;;;;5.68;3.95;;;;;;;;;;6307790;22;20010;-83
2022/10/18 14:57:43;;;;;;;3.72;2.92;;;;;;;;;;6307658;22;19995;-84
2022/10/18 15:00:18;;;;;;;5.45;3.47;;;;;;;;;;6307900;22;19995;-80
2022/10/18 15:02:44;;;;;;;4.95;4.00;;;;;;;;;;6307698;22;20000;-83
2022/10/18 15:05:18;;;;;;;4.28;3.75;;;;;;;;;;6307590;22;20017;-83
2022/10/18 15:07:44;;;;;;;8.57;6.07;;;;;;;;;;6307194;22;20074;-85
2022/10/18 15:10:29;;;;;;;8.73;5.55;;;;;;;;;;6307785;22;19999;-81
2022/10/18 15:13:01;;;;;;;3.80;3.03;;;;;;;;;;6307691;22;20004;-83
2022/10/18 15:15:29;;;;;;;4.57;3.75;;;;;;;;;;6305915;22;20009;-86
2022/10/18 15:17:56;;;;;;;8.43;6.57;;;;;;;;;;6307734;22;20373;-84
2022/10/18 15:20:23;;;;;;;8.65;7.85;;;;;;;;;;6307141;22;20439;-83
2022/10/18 15:22:50;;;;;;;5.43;4.47;;;;;;;;;;6307641;22;19999;-84
2022/10/18 15:25:17;;;;;;;4.75;3.35;;;;;;;;;;6307728;22;20026;-88
2022/10/18 15:27:48;;;;;;;7.30;5.70;;;;;;;;;;6307751;22;20342;-82
2022/10/18 15:30:21;;;;;;;10.48;8.27;;;;;;;;;;6307349;22;20023;-87
2022/10/18 15:32:58;;;;;;;11.88;10.68;;;;;;;;;;6307403;22;20322;-86
2022/10/18 15:35:28;;;;;;;10.80;9.30;;;;;;;;;;6306788;22;20046;-84
2022/10/18 15:37:55;;;;;;;16.08;10.50;;;;;;;;;;6306541;22;20308;-88
2022/10/18 15:40:22;;;;;;;31.40;16.45;;;;;;;;;;6307474;22;20003;-86
2022/10/18 15:42:48;;;;;;;18.33;13.13;;;;;;;;;;6307462;22;19999;-85
2022/10/18 15:45:41;;;;;;;14.05;10.23;;;;;;;;;;6307114;22;20336;-83
2022/10/18 15:48:08;;;;;;;14.90;9.70;;;;;;;;;;6301927;22;20003;-85
2022/10/18 15:50:41;;;;;;;15.05;7.90;;;;;;;;;;6307239;22;20132;-84
2022/10/18 15:53:22;;;;;;;10.05;7.63;;;;;;;;;;6307385;22;20003;-81
2022/10/18 15:56:07;;;;;;;9.82;7.38;;;;;;;;;;6307441;22;20005;-84